Time;durP1;ratioP1;P1;durP2;ratioP2;P2;SDS_P1;SDS_P2;PMS_P1;PMS_P2;Temp;Humidity;BMP_temperature;BMP_pressure;BME280_temperature;BME280_humidity;BME280_pressure;Samples;Min_cycle;Max_cycle;Signal;HPM_P1;HPM_P2
2022/05/23 00:01:04;;;;;;;7.85;2.72;;;14.40;99.90;;;;;;5045061;28;20030;-78
2022/05/23 00:03:31;;;;;;;5.10;1.92;;;14.30;99.90;;;;;;5053882;28;20036;-78
2022/05/23 00:05:57;;;;;;;6.55;2.10;;;14.30;99.90;;;;;;5051039;28;20017;-78
2022/05/23 00:08:25;;;;;;;3.40;2.05;;;14.30;99.90;;;;;;5029102;28;20093;-78
2022/05/23 00:10:51;;;;;;;4.50;2.50;;;14.30;99.90;;;;;;5053687;28;20048;-79
2022/05/23 00:13:17;;;;;;;4.63;2.50;;;14.30;99.90;;;;;;5033768;28;20037;-80
2022/05/23 00:15:43;;;;;;;7.82;3.00;;;14.30;99.90;;;;;;5047206;28;20064;-78
2022/05/23 00:18:08;;;;;;;6.50;2.58;;;14.30;99.90;;;;;;5024862;28;20029;-79
2022/05/23 00:20:34;;;;;;;5.22;2.58;;;14.30;99.90;;;;;;5023867;28;20048;-79
2022/05/23 00:22:59;;;;;;;7.70;2.13;;;14.30;99.90;;;;;;5043470;28;20025;-79
2022/05/23 00:25:26;;;;;;;8.43;3.05;;;14.30;99.90;;;;;;5046715;28;20021;-77
2022/05/23 00:27:52;;;;;;;4.57;2.13;;;14.20;99.90;;;;;;5052353;28;20488;-78
2022/05/23 00:30:26;;;;;;;7.32;2.72;;;14.30;99.90;;;;;;5051991;28;20079;-78
2022/05/23 00:35:37;;;;;;;7.68;2.63;;;14.30;99.90;;;;;;5047351;28;20064;-78
2022/05/23 00:38:03;;;;;;;10.50;2.90;;;14.20;99.90;;;;;;5042020;28;20056;-77
2022/05/23 00:40:40;;;;;;;7.72;2.33;;;14.20;99.90;;;;;;5021406;28;20041;-77
2022/05/23 00:43:16;;;;;;;5.97;2.30;;;14.10;99.90;;;;;;5041935;28;20014;-78
2022/05/23 00:45:47;;;;;;;5.85;2.72;;;14.10;99.90;;;;;;5045057;28;20049;-78
2022/05/23 00:48:15;;;;;;;8.60;3.28;;;14.10;99.90;;;;;;5039246;28;20101;-77
2022/05/23 00:50:45;;;;;;;4.80;2.33;;;14.10;99.90;;;;;;5039182;28;20025;-78
2022/05/23 00:53:11;;;;;;;8.35;2.70;;;14.00;99.90;;;;;;5040066;28;20055;-78
2022/05/23 00:55:42;;;;;;;6.18;2.40;;;14.00;99.90;;;;;;5025372;28;20111;-79
2022/05/23 00:58:10;;;;;;;;;;;14.00;99.90;;;;;;5046012;28;20104;-78
2022/05/23 01:00:36;;;;;;;6.10;2.72;;;13.90;99.90;;;;;;5048462;28;19910;-78
2022/05/23 01:03:07;;;;;;;3.85;2.58;;;14.00;99.90;;;;;;5045732;28;20032;-78
2022/05/23 01:05:36;;;;;;;5.55;2.40;;;13.90;99.90;;;;;;5026235;28;20025;-78
2022/05/23 01:08:03;;;;;;;4.32;2.60;;;13.90;99.90;;;;;;5043302;28;20060;-78
2022/05/23 01:10:31;;;;;;;5.55;2.50;;;13.90;99.90;;;;;;5053157;28;20014;-77
2022/05/23 01:12:57;;;;;;;5.55;2.60;;;13.90;99.90;;;;;;5051430;28;20030;-78
2022/05/23 01:15:28;;;;;;;5.15;2.22;;;13.90;99.90;;;;;;5022759;28;20021;-78
2022/05/23 01:17:54;;;;;;;6.57;2.42;;;13.90;99.90;;;;;;5041181;28;20033;-78
2022/05/23 01:20:21;;;;;;;9.98;3.20;;;13.90;99.90;;;;;;5042410;28;20029;-78
2022/05/23 01:23:00;;;;;;;5.35;2.58;;;13.80;99.90;;;;;;5040476;28;20386;-76
2022/05/23 01:25:38;;;;;;;3.63;2.17;;;13.80;99.90;;;;;;5022185;28;20509;-77
2022/05/23 01:28:03;;;;;;;5.20;2.75;;;13.80;99.90;;;;;;5021274;28;20021;-77
2022/05/23 01:30:30;;;;;;;6.10;2.50;;;13.80;99.90;;;;;;5038867;28;20098;-77
2022/05/23 01:32:56;;;;;;;7.07;2.50;;;13.80;99.90;;;;;;5039835;28;20030;-76
2022/05/23 01:35:22;;;;;;;6.72;2.80;;;13.80;99.90;;;;;;5022035;28;20366;-77
2022/05/23 01:37:47;;;;;;;5.50;2.20;;;13.70;99.90;;;;;;5040154;28;20029;-77
2022/05/23 01:40:16;;;;;;;8.18;2.55;;;13.70;99.90;;;;;;5021396;28;20040;-77
2022/05/23 01:42:42;;;;;;;5.47;2.78;;;13.70;99.90;;;;;;5021774;28;20402;-78
2022/05/23 01:45:10;;;;;;;7.35;2.85;;;13.70;99.90;;;;;;5040021;28;20022;-77
2022/05/23 01:47:36;;;;;;;6.00;2.47;;;13.60;99.90;;;;;;5046770;28;20029;-77
2022/05/23 01:50:01;;;;;;;4.20;2.33;;;13.60;99.90;;;;;;5041545;28;20025;-77
2022/05/23 01:52:27;;;;;;;4.10;2.75;;;13.60;99.90;;;;;;5039405;28;20025;-77
2022/05/23 01:54:52;;;;;;;3.53;2.58;;;13.60;99.90;;;;;;5039347;28;20040;-77
2022/05/23 01:57:18;;;;;;;6.40;2.58;;;13.60;99.90;;;;;;5039581;28;20143;-78
2022/05/23 02:02:27;;;;;;;5.55;2.40;;;13.60;99.90;;;;;;5038960;28;20024;-78
2022/05/23 02:04:54;;;;;;;3.63;2.08;;;13.60;99.90;;;;;;5039793;28;20037;-78
2022/05/23 02:07:20;;;;;;;6.80;2.72;;;13.60;99.90;;;;;;5039691;28;20017;-79
2022/05/23 02:09:45;;;;;;;6.53;2.58;;;13.60;99.90;;;;;;5039901;28;20025;-77
2022/05/23 02:12:17;;;;;;;5.00;2.60;;;13.60;99.90;;;;;;5038904;28;20419;-77
2022/05/23 02:14:43;;;;;;;10.82;3.05;;;13.60;99.90;;;;;;5039017;28;20025;-77
2022/05/23 02:17:10;;;;;;;3.58;2.60;;;13.60;99.90;;;;;;5040380;28;20026;-77
2022/05/23 02:19:36;;;;;;;4.15;2.40;;;13.60;99.90;;;;;;5049779;28;20033;-77
2022/05/23 02:22:02;;;;;;;4.93;2.50;;;13.50;99.90;;;;;;5042946;28;20391;-77
2022/05/23 02:24:28;;;;;;;4.53;2.33;;;13.50;99.90;;;;;;5046686;28;20036;-78
2022/05/23 02:26:53;;;;;;;6.72;2.50;;;13.50;99.90;;;;;;5047147;28;20029;-77
2022/05/23 02:29:19;;;;;;;5.25;2.50;;;13.50;99.90;;;;;;5047131;28;20033;-77
2022/05/23 02:31:48;;;;;;;6.93;2.42;;;13.50;99.90;;;;;;5041523;28;20152;-77
2022/05/23 02:34:15;;;;;;;5.00;2.58;;;13.50;99.90;;;;;;5040733;28;20022;-77
2022/05/23 02:36:41;;;;;;;8.25;2.35;;;13.50;99.90;;;;;;5041906;28;20095;-78
2022/05/23 02:39:06;;;;;;;7.75;2.67;;;13.50;99.90;;;;;;5042642;28;20052;-77
2022/05/23 02:41:33;;;;;;;3.10;2.50;;;13.50;99.90;;;;;;5043728;28;20426;-77
2022/05/23 02:43:59;;;;;;;4.32;2.72;;;13.50;99.90;;;;;;5043999;28;20026;-78
2022/05/23 02:46:24;;;;;;;3.88;2.28;;;13.40;99.90;;;;;;5028041;28;20074;-78
2022/05/23 02:48:50;;;;;;;3.67;3.10;;;13.40;99.90;;;;;;5045528;28;20463;-76
2022/05/23 02:51:15;;;;;;;4.55;2.83;;;13.40;99.90;;;;;;5037837;28;20131;-77
2022/05/23 02:53:41;;;;;;;5.82;3.20;;;13.40;99.90;;;;;;5037291;28;20021;-77
2022/05/23 02:56:06;;;;;;;8.70;2.70;;;13.30;99.90;;;;;;5019338;28;20021;-77
2022/05/23 02:58:32;;;;;;;6.00;3.13;;;13.30;99.90;;;;;;5037750;28;20057;-77
2022/05/23 03:00:57;;;;;;;7.80;3.40;;;13.30;99.90;;;;;;5038187;28;20061;-77
2022/05/23 03:03:23;;;;;;;9.52;3.58;;;13.40;99.90;;;;;;5036888;28;20471;-78
2022/05/23 03:05:53;;;;;;;5.38;3.22;;;13.40;99.90;;;;;;5036613;28;20049;-77
2022/05/23 03:08:22;;;;;;;6.93;3.55;;;13.40;99.90;;;;;;5036558;28;20028;-77
2022/05/23 03:10:49;;;;;;;6.85;3.45;;;13.40;99.90;;;;;;5018700;28;20056;-77
2022/05/23 03:13:15;;;;;;;7.88;3.40;;;13.50;99.90;;;;;;5036781;28;20458;-77
2022/05/23 03:15:41;;;;;;;6.93;3.75;;;13.50;99.90;;;;;;5035824;28;20040;-77
2022/05/23 03:18:07;;;;;;;7.15;3.95;;;13.50;99.90;;;;;;5036835;28;20445;-78
2022/05/23 03:20:33;;;;;;;7.47;3.72;;;13.50;99.90;;;;;;5018058;28;20100;-77
2022/05/23 03:28:27;;;;;;;9.07;3.53;;;13.50;99.90;;;;;;5048318;28;20506;-77
2022/05/23 03:30:53;;;;;;;7.13;3.20;;;13.60;99.90;;;;;;5037050;28;20037;-77
2022/05/23 03:33:20;;;;;;;6.15;3.35;;;13.60;99.90;;;;;;5036987;28;20112;-77
2022/05/23 03:35:46;;;;;;;5.50;3.17;;;13.60;99.90;;;;;;5036344;28;20394;-77
2022/05/23 03:38:11;;;;;;;5.47;2.90;;;13.70;99.90;;;;;;5037726;28;20028;-78
2022/05/23 03:40:39;;;;;;;3.10;2.60;;;13.70;99.90;;;;;;5038592;28;20049;-78
2022/05/23 03:43:05;;;;;;;5.50;3.00;;;13.70;99.90;;;;;;5038236;28;20026;-78
2022/05/23 03:45:33;;;;;;;5.88;3.10;;;13.80;99.90;;;;;;5039166;28;20024;-79
2022/05/23 03:48:00;;;;;;;6.03;2.90;;;13.80;99.90;;;;;;5020369;28;20112;-78
2022/05/23 03:50:29;;;;;;;4.47;2.53;;;13.80;99.90;;;;;;5020257;28;20032;-78
2022/05/23 03:52:54;;;;;;;5.68;2.80;;;13.80;99.90;;;;;;5039178;28;20037;-78
2022/05/23 03:55:21;;;;;;;6.95;2.42;;;13.80;99.90;;;;;;5021221;28;20042;-78
2022/05/23 03:57:47;;;;;;;6.75;3.00;;;13.80;99.90;;;;;;5038984;28;20030;-78
2022/05/23 04:00:13;;;;;;;7.45;3.13;;;13.80;99.90;;;;;;5039284;28;20094;-78
2022/05/23 04:02:40;;;;;;;11.60;3.28;;;13.80;99.90;;;;;;5039399;28;20497;-77
2022/05/23 04:05:07;;;;;;;5.30;2.78;;;13.80;99.90;;;;;;5037180;28;20041;-77
2022/05/23 04:07:36;;;;;;;5.80;2.50;;;13.70;99.90;;;;;;5036727;28;20068;-77
2022/05/23 04:10:03;;;;;;;5.25;2.95;;;13.70;99.90;;;;;;5037589;28;20021;-77
2022/05/23 04:12:29;;;;;;;4.55;3.33;;;13.70;99.90;;;;;;5037477;28;20033;-78
2022/05/23 04:14:54;;;;;;;4.45;2.72;;;13.80;99.90;;;;;;5021022;28;20052;-78
2022/05/23 04:17:20;;;;;;;7.75;3.15;;;13.80;99.90;;;;;;5019904;28;20478;-79
2022/05/23 04:19:47;;;;;;;6.07;3.28;;;13.80;99.90;;;;;;5039412;28;20100;-78
2022/05/23 04:22:12;;;;;;;8.73;2.80;;;13.90;99.90;;;;;;5039396;28;20030;-78
2022/05/23 04:24:38;;;;;;;6.28;3.13;;;13.90;99.90;;;;;;5020378;28;20048;-78
2022/05/23 04:27:04;;;;;;;6.07;3.25;;;14.00;99.90;;;;;;5036632;28;20025;-78
2022/05/23 04:29:29;;;;;;;9.45;3.28;;;14.00;99.90;;;;;;5041326;28;20033;-77
2022/05/23 04:31:55;;;;;;;6.10;3.50;;;14.00;99.90;;;;;;5041871;28;20061;-77
2022/05/23 04:37:05;;;;;;;7.63;3.42;;;14.10;99.90;;;;;;5052340;28;20079;-77
2022/05/23 04:39:30;;;;;;;4.90;3.20;;;14.20;99.90;;;;;;5024829;28;20038;-78
2022/05/23 04:41:56;;;;;;;10.13;3.72;;;14.30;99.90;;;;;;5042668;28;20068;-78
2022/05/23 04:44:22;;;;;;;6.75;3.85;;;14.30;99.90;;;;;;5025095;28;20041;-78
2022/05/23 04:49:50;;;;;;;5.85;3.80;;;14.50;99.90;;;;;;5042145;28;20028;-77
2022/05/23 04:52:19;;;;;;;12.52;3.90;;;14.50;99.90;;;;;;5049073;28;20018;-78
2022/05/23 04:54:46;;;;;;;8.27;3.53;;;14.60;99.90;;;;;;5040819;28;20140;-77
2022/05/23 04:57:12;;;;;;;8.05;3.35;;;14.70;99.90;;;;;;5042641;28;20328;-78
2022/05/23 04:59:37;;;;;;;6.65;3.33;;;14.70;99.90;;;;;;5042882;28;20056;-79
2022/05/23 05:02:04;;;;;;;5.30;3.22;;;14.70;99.90;;;;;;5024301;28;20033;-78
2022/05/23 05:04:30;;;;;;;5.07;3.30;;;14.80;99.90;;;;;;5041586;28;20040;-78
2022/05/23 05:06:56;;;;;;;6.18;3.05;;;14.80;99.90;;;;;;5041810;28;20104;-77
2022/05/23 05:09:21;;;;;;;8.20;3.35;;;14.80;99.90;;;;;;5024857;28;20483;-78
2022/05/23 05:11:47;;;;;;;5.82;3.25;;;14.90;99.90;;;;;;5044102;28;20108;-78
2022/05/23 05:14:13;;;;;;;3.33;3.03;;;14.90;99.90;;;;;;5031819;28;20037;-77
2022/05/23 05:16:38;;;;;;;5.95;3.50;;;15.00;99.90;;;;;;5049469;28;20029;-78
2022/05/23 05:19:04;;;;;;;4.80;3.42;;;15.10;99.90;;;;;;5027944;28;20056;-78
2022/05/23 05:21:30;;;;;;;8.52;3.15;;;15.10;99.90;;;;;;5046636;28;20313;-78
2022/05/23 05:23:55;;;;;;;6.13;3.25;;;15.20;99.90;;;;;;5055918;28;20020;-78
2022/05/23 05:26:22;;;;;;;5.47;2.88;;;15.30;99.90;;;;;;5036484;28;20021;-78
2022/05/23 05:28:48;;;;;;;9.38;3.28;;;15.30;99.90;;;;;;5050624;28;20018;-77
2022/05/23 05:31:29;;;;;;;7.00;3.47;;;15.50;99.90;;;;;;5027703;28;20040;-77
2022/05/23 05:34:08;;;;;;;7.90;3.17;;;15.50;99.90;;;;;;5041475;28;20017;-77
2022/05/23 05:36:40;;;;;;;8.68;3.05;;;15.60;99.90;;;;;;5039194;28;20021;-77
2022/05/23 05:39:07;;;;;;;6.53;3.40;;;15.70;99.90;;;;;;5020932;28;20029;-76
2022/05/23 05:41:36;;;;;;;5.85;2.97;;;15.80;99.90;;;;;;5039545;28;20483;-77
2022/05/23 05:44:09;;;;;;;6.35;3.22;;;15.90;99.90;;;;;;5049185;28;20201;-76
2022/05/23 05:46:39;;;;;;;4.82;3.28;;;16.00;99.90;;;;;;5042246;28;20030;-76
2022/05/23 05:49:11;;;;;;;6.20;3.35;;;16.10;99.90;;;;;;5038702;28;20122;-76
2022/05/23 05:51:38;;;;;;;5.80;4.05;;;16.20;99.90;;;;;;5038697;28;20040;-77
2022/05/23 05:54:06;;;;;;;11.13;4.07;;;16.30;99.90;;;;;;5038304;28;20108;-77
2022/05/23 05:56:32;;;;;;;7.80;3.40;;;16.40;99.90;;;;;;5020116;28;20021;-76
2022/05/23 05:58:57;;;;;;;5.65;3.05;;;16.40;99.90;;;;;;5038423;28;20026;-76
2022/05/23 06:01:23;;;;;;;8.35;3.63;;;16.40;99.90;;;;;;5020434;28;20033;-77
2022/05/23 06:03:48;;;;;;;9.23;3.25;;;16.50;99.90;;;;;;5038764;28;20391;-76
2022/05/23 06:11:42;;;;;;;11.88;3.25;;;16.80;99.90;;;;;;5039465;28;20040;-76
2022/05/23 06:14:07;;;;;;;4.70;2.97;;;16.90;99.90;;;;;;5039206;28;20021;-76
2022/05/23 06:16:35;;;;;;;12.10;2.85;;;16.90;99.90;;;;;;5021147;28;20025;-76
2022/05/23 06:19:01;;;;;;;5.28;2.50;;;16.90;99.90;;;;;;5038072;28;20022;-77
2022/05/23 06:21:28;;;;;;;6.57;3.00;;;16.90;99.90;;;;;;5039124;28;20022;-76
2022/05/23 06:23:54;;;;;;;11.73;2.60;;;16.90;99.90;;;;;;5039422;28;20139;-77
2022/05/23 06:26:23;;;;;;;7.70;3.10;;;16.90;99.90;;;;;;5039188;28;20025;-76
2022/05/23 06:28:50;;;;;;;7.32;2.58;;;17.00;99.90;;;;;;5039443;28;20037;-76
2022/05/23 06:31:16;;;;;;;4.07;2.85;;;17.10;99.90;;;;;;5039512;28;20037;-77
2022/05/23 06:33:42;;;;;;;8.20;3.38;;;17.10;99.90;;;;;;5039944;28;20108;-77
2022/05/23 06:36:08;;;;;;;8.82;2.85;;;17.10;99.90;;;;;;5040098;28;20057;-77
2022/05/23 06:38:36;;;;;;;7.72;2.75;;;17.10;99.90;;;;;;5024014;28;20025;-76
2022/05/23 06:41:02;;;;;;;7.97;2.50;;;17.20;99.90;;;;;;5042701;28;20036;-77
2022/05/23 06:43:29;;;;;;;5.55;2.45;;;17.20;99.90;;;;;;5043298;28;20070;-75
2022/05/23 06:45:55;;;;;;;5.57;2.90;;;17.20;99.90;;;;;;5044734;28;20023;-76
2022/05/23 06:48:22;;;;;;;14.20;2.33;;;17.30;99.90;;;;;;5045126;28;20358;-75
2022/05/23 06:50:50;;;;;;;8.68;2.22;;;17.30;99.90;;;;;;5048729;28;20029;-76
2022/05/23 06:53:16;;;;;;;7.90;2.78;;;17.40;99.90;;;;;;5049526;28;20028;-75
2022/05/23 06:55:42;;;;;;;5.15;2.97;;;17.50;99.90;;;;;;5047077;28;20029;-77
2022/05/23 06:58:07;;;;;;;7.32;3.08;;;17.70;99.90;;;;;;5020862;28;20391;-76
2022/05/23 07:00:33;;;;;;;4.28;2.35;;;17.80;99.90;;;;;;5037988;28;20076;-76
2022/05/23 07:02:59;;;;;;;3.47;2.13;;;18.00;99.90;;;;;;5037939;28;20475;-77
2022/05/23 07:13:37;;;;;;;6.43;2.75;;;18.40;99.90;;;;;;5037792;28;20099;-77
2022/05/23 07:16:05;;;;;;;5.45;2.72;;;18.50;99.90;;;;;;5037846;28;20037;-76
2022/05/23 07:18:30;;;;;;;4.93;2.35;;;18.50;99.90;;;;;;5038021;28;20075;-76
2022/05/23 07:20:56;;;;;;;9.10;3.10;;;18.50;99.90;;;;;;5037427;28;20029;-76
2022/05/23 07:23:22;;;;;;;6.18;3.25;;;18.60;99.90;;;;;;5037998;28;20097;-77
2022/05/23 07:25:48;;;;;;;6.70;3.08;;;18.60;99.90;;;;;;5019706;28;20100;-76
2022/05/23 07:28:14;;;;;;;9.80;3.13;;;18.60;99.90;;;;;;5038068;28;20471;-77
2022/05/23 07:30:41;;;;;;;6.50;2.78;;;18.70;99.90;;;;;;5037930;28;20426;-76
2022/05/23 07:33:07;;;;;;;6.68;2.85;;;18.80;99.90;;;;;;5038317;28;20483;-76
2022/05/23 07:35:32;;;;;;;6.82;2.75;;;18.90;99.90;;;;;;5039232;28;20068;-76
2022/05/23 07:37:58;;;;;;;9.50;3.05;;;18.90;99.90;;;;;;5049367;28;20044;-75
2022/05/23 07:40:23;;;;;;;5.32;2.70;;;19.00;99.90;;;;;;5054719;28;20055;-76
2022/05/23 07:42:49;;;;;;;9.65;2.60;;;19.10;99.90;;;;;;5034962;28;20111;-77
2022/05/23 07:45:15;;;;;;;6.63;2.88;;;19.20;99.90;;;;;;5019687;28;20018;-77
2022/05/23 07:47:40;;;;;;;5.57;2.70;;;19.30;99.90;;;;;;5019904;28;20042;-77
2022/05/23 07:50:08;;;;;;;4.13;2.83;;;19.30;99.90;;;;;;5037434;28;20064;-76
2022/05/23 07:52:34;;;;;;;8.27;3.00;;;19.50;99.90;;;;;;5036683;28;20045;-76
2022/05/23 08:00:37;;;;;;;6.70;3.00;;;19.60;99.90;;;;;;5051568;28;20040;-77
2022/05/23 08:03:16;;;;;;;4.30;3.10;;;19.70;99.90;;;;;;5035583;28;20104;-76
2022/05/23 08:05:43;;;;;;;6.70;2.90;;;19.70;99.90;;;;;;5035937;28;20074;-76
2022/05/23 08:08:08;;;;;;;7.13;2.78;;;19.70;99.90;;;;;;5040338;28;20022;-77
2022/05/23 08:10:34;;;;;;;6.85;2.80;;;19.80;99.90;;;;;;5037316;28;20021;-76
2022/05/23 08:13:03;;;;;;;5.47;2.67;;;19.90;99.90;;;;;;5040406;28;20025;-76
2022/05/23 08:15:28;;;;;;;4.68;2.40;;;20.00;99.90;;;;;;5035766;28;20029;-77
2022/05/23 08:17:54;;;;;;;4.45;2.42;;;20.10;99.90;;;;;;5035564;28;20466;-76
2022/05/23 08:20:20;;;;;;;4.30;2.75;;;20.20;99.90;;;;;;5035301;28;20026;-75
2022/05/23 08:22:51;;;;;;;3.50;2.40;;;20.30;99.90;;;;;;5046515;28;20538;-75
2022/05/23 08:25:17;;;;;;;7.80;2.83;;;20.40;99.90;;;;;;5036731;28;20035;-76
2022/05/23 08:27:42;;;;;;;6.63;3.08;;;20.40;99.90;;;;;;5017866;28;20089;-77
2022/05/23 08:30:09;;;;;;;6.05;2.30;;;20.60;99.90;;;;;;5025660;28;20029;-76
2022/05/23 08:32:34;;;;;;;5.05;2.25;;;20.60;99.90;;;;;;5041275;28;20037;-77
2022/05/23 08:35:00;;;;;;;4.43;2.58;;;20.60;99.90;;;;;;5036645;28;20126;-76
2022/05/23 08:37:25;;;;;;;3.17;2.33;;;20.70;99.90;;;;;;5036564;28;20029;-77
2022/05/23 08:39:51;;;;;;;6.10;2.88;;;20.70;99.90;;;;;;5018837;28;20026;-76
2022/05/23 08:42:35;;;;;;;6.68;3.03;;;20.80;99.90;;;;;;5018941;28;20391;-77
2022/05/23 08:45:06;;;;;;;7.70;2.33;;;20.90;99.90;;;;;;5037031;28;20026;-76
2022/05/23 08:48:17;;;;;;;6.70;2.75;;;20.90;99.90;;;;;;5046345;28;20059;-76
2022/05/23 08:51:13;;;;;;;4.88;2.75;;;20.90;99.90;;;;;;4953498;29;20043;-76
2022/05/23 08:53:45;;;;;;;4.90;2.70;;;20.90;99.90;;;;;;5029659;28;20029;-76
2022/05/23 08:56:26;;;;;;;7.50;2.92;;;21.00;99.90;;;;;;5037800;28;20032;-76
2022/05/23 08:58:55;;;;;;;10.23;2.78;;;21.10;99.90;;;;;;5024703;28;20029;-76
2022/05/23 09:01:26;;;;;;;5.88;2.40;;;21.20;99.90;;;;;;5038175;28;20030;-76
2022/05/23 09:04:03;;;;;;;3.53;2.47;;;21.20;99.90;;;;;;5018739;28;20017;-77
2022/05/23 09:06:39;;;;;;;5.72;2.67;;;21.30;99.90;;;;;;5043812;28;20026;-74
2022/05/23 09:09:07;;;;;;;8.82;2.80;;;21.40;99.90;;;;;;5060170;28;20025;-76
2022/05/23 09:11:36;;;;;;;5.07;3.05;;;21.50;99.90;;;;;;5057311;28;20032;-76
2022/05/23 09:14:05;;;;;;;8.15;3.10;;;21.50;99.90;;;;;;5057756;28;20095;-76
2022/05/23 09:16:48;;;;;;;6.43;2.70;;;21.50;99.90;;;;;;5041844;28;20031;-76
2022/05/23 09:19:22;;;;;;;5.20;2.72;;;21.50;99.90;;;;;;5051919;28;20422;-76
2022/05/23 09:25:00;;;;;;;10.15;2.55;;;21.60;99.90;;;;;;5040368;28;20099;-76
2022/05/23 09:27:35;;;;;;;5.43;2.78;;;21.60;99.90;;;;;;5036376;28;20049;-76
2022/05/23 09:30:04;;;;;;;8.20;3.67;;;21.60;99.90;;;;;;5039349;28;20033;-75
2022/05/23 09:32:38;;;;;;;7.45;3.40;;;21.60;99.90;;;;;;5039344;28;20033;-76
2022/05/23 09:35:17;;;;;;;6.93;2.92;;;21.80;99.90;;;;;;5039254;28;20067;-76
2022/05/23 09:37:46;;;;;;;8.32;3.67;;;21.80;99.90;;;;;;5039620;28;20025;-76
2022/05/23 09:40:27;;;;;;;4.88;2.92;;;22.00;99.90;;;;;;5039285;28;20056;-76
2022/05/23 09:49:08;;;;;;;8.15;2.92;;;22.30;99.90;;;;;;5044591;28;20052;-75
2022/05/23 09:51:56;;;;;;;5.60;2.85;;;22.40;99.90;;;;;;5009222;28;20074;-75
2022/05/23 09:54:30;;;;;;;8.65;3.13;;;22.40;99.90;;;;;;5042298;28;20033;-74
2022/05/23 09:57:02;;;;;;;8.98;4.32;;;22.40;99.90;;;;;;5049111;28;20118;-76
2022/05/23 09:59:31;;;;;;;13.50;6.57;;;22.40;99.90;;;;;;5038513;28;20031;-75
2022/05/23 10:02:04;;;;;;;10.20;4.82;;;22.40;99.90;;;;;;5037734;28;20027;-75
2022/05/23 10:04:31;;;;;;;6.65;3.25;;;22.40;99.90;;;;;;5020965;28;20030;-76
2022/05/23 10:06:57;;;;;;;6.03;2.80;;;22.50;99.90;;;;;;5038655;28;20479;-76
2022/05/23 10:09:34;;;;;;;13.50;3.75;;;22.50;99.90;;;;;;5038673;28;20030;-76
2022/05/23 10:12:06;;;;;;;4.28;3.28;;;22.50;99.90;;;;;;5038838;28;20034;-75
2022/05/23 10:14:46;;;;;;;8.35;3.13;;;22.60;99.90;;;;;;5048658;28;20013;-75
2022/05/23 10:17:27;;;;;;;9.80;3.90;;;22.60;99.90;;;;;;5033802;28;20470;-75
2022/05/23 10:19:54;;;;;;;5.82;2.70;;;22.50;99.90;;;;;;5038290;28;20095;-75
2022/05/23 10:22:25;;;;;;;4.43;2.80;;;22.50;99.90;;;;;;5038769;28;20474;-76
2022/05/23 10:25:03;;;;;;;9.07;2.85;;;22.60;99.90;;;;;;5039092;28;20375;-75
2022/05/23 10:27:50;;;;;;;3.45;2.47;;;22.60;99.90;;;;;;5051903;28;20036;-75
2022/05/23 10:30:19;;;;;;;5.65;2.80;;;22.70;99.90;;;;;;5058905;28;20088;-75
2022/05/23 10:32:48;;;;;;;6.85;2.85;;;22.70;99.90;;;;;;5044625;28;20025;-75
2022/05/23 10:35:36;;;;;;;5.35;2.40;;;22.70;99.90;;;;;;5039662;28;20021;-75
2022/05/23 10:44:16;;;;;;;3.05;2.30;;;22.90;99.90;;;;;;5040323;28;20100;-75
2022/05/23 10:46:46;;;;;;;12.50;3.17;;;23.00;99.90;;;;;;5039817;28;20081;-76
2022/05/23 10:49:52;;;;;;;4.63;2.83;;;23.00;99.90;;;;;;5023851;28;20032;-76
2022/05/23 10:52:24;;;;;;;7.18;3.25;;;23.10;99.90;;;;;;5041041;28;20018;-76
2022/05/23 10:55:03;;;;;;;7.40;2.90;;;23.10;99.90;;;;;;5025101;28;20020;-76
2022/05/23 10:57:35;;;;;;;4.07;2.70;;;23.10;99.90;;;;;;5044129;28;20022;-76
2022/05/23 11:00:05;;;;;;;6.78;2.63;;;23.00;99.90;;;;;;5053460;28;20382;-76
2022/05/23 11:02:54;;;;;;;8.90;3.00;;;23.00;99.90;;;;;;5064304;28;20052;-77
2022/05/23 11:05:40;;;;;;;5.45;3.10;;;23.00;99.90;;;;;;5064924;28;20429;-77
2022/05/23 11:08:12;;;;;;;4.43;2.65;;;22.90;99.90;;;;;;5053061;28;20525;-74
2022/05/23 11:10:45;;;;;;;;;;;22.90;99.90;;;;;;5036277;28;20025;-76
2022/05/23 11:13:21;;;;;;;9.50;3.28;;;23.00;99.90;;;;;;5020023;28;20418;-77
2022/05/23 11:16:08;;;;;;;5.28;2.90;;;23.10;99.90;;;;;;5041433;28;20093;-77
2022/05/23 11:18:51;;;;;;;8.15;3.20;;;23.30;99.90;;;;;;5035865;28;20025;-76
2022/05/23 11:21:31;;;;;;;6.15;3.38;;;23.30;99.90;;;;;;5024241;28;20026;-76
2022/05/23 11:24:04;;;;;;;9.32;2.85;;;23.30;99.90;;;;;;5054469;28;20101;-75
2022/05/23 11:26:43;;;;;;;9.00;3.60;;;23.20;99.90;;;;;;5037720;28;20028;-76
2022/05/23 11:34:52;;;;;;;6.15;3.08;;;23.40;99.90;;;;;;5036743;28;20028;-76
2022/05/23 11:40:06;;;;;;;5.55;2.85;;;23.40;99.90;;;;;;5044305;28;20463;-76
2022/05/23 11:42:42;;;;;;;8.90;6.07;;;23.40;99.90;;;;;;5046015;28;20029;-76
2022/05/23 11:47:57;;;;;;;6.10;4.55;;;23.50;99.90;;;;;;5037621;28;20036;-76
2022/05/23 11:50:26;;;;;;;;;;;23.50;99.90;;;;;;5036705;28;20056;-76
2022/05/23 11:53:04;;;;;;;7.43;4.20;;;23.50;99.90;;;;;;5036993;28;20263;-76
2022/05/23 11:56:01;;;;;;;7.00;3.22;;;23.60;99.90;;;;;;5037514;28;20429;-76
2022/05/23 11:58:43;;;;;;;4.82;3.25;;;23.70;99.90;;;;;;5036734;28;20026;-74
2022/05/23 12:01:11;;;;;;;7.63;3.10;;;23.80;99.90;;;;;;5036800;28;20025;-76
2022/05/23 12:03:52;;;;;;;7.47;2.80;;;23.90;99.90;;;;;;5036581;28;20458;-77
2022/05/23 12:06:22;;;;;;;7.95;2.92;;;24.00;99.90;;;;;;5036796;28;20021;-77
2022/05/23 12:09:11;;;;;;;6.32;2.92;;;24.10;99.90;;;;;;5018474;28;20064;-76
2022/05/23 12:11:40;;;;;;;6.10;2.85;;;24.20;99.90;;;;;;5013797;28;20028;-76
2022/05/23 12:14:11;;;;;;;8.18;2.97;;;24.30;99.90;;;;;;5055846;28;20132;-76
2022/05/23 12:16:39;;;;;;;7.85;3.00;;;24.30;99.90;;;;;;5055631;28;20033;-76
2022/05/23 12:19:48;;;;;;;4.13;2.63;;;24.40;99.90;;;;;;5055760;28;20060;-76
2022/05/23 12:22:26;;;;;;;7.90;2.90;;;24.40;99.90;;;;;;5056253;28;20021;-76
2022/05/23 12:25:17;;;;;;;6.35;2.75;;;24.50;99.90;;;;;;5055898;28;20471;-75
2022/05/23 12:27:42;;;;;;;6.97;2.30;;;24.60;99.90;;;;;;5038468;28;20033;-76
2022/05/23 12:30:17;;;;;;;7.10;2.90;;;24.60;99.90;;;;;;5049458;28;20096;-76
2022/05/23 12:33:03;;;;;;;3.25;2.65;;;24.60;99.90;;;;;;5041295;28;20037;-76
2022/05/23 12:35:40;;;;;;;5.32;2.60;;;24.70;99.90;;;;;;5038946;28;20056;-76
2022/05/23 12:38:17;;;;;;;5.90;2.60;;;24.70;99.90;;;;;;5056862;28;20048;-76
2022/05/23 12:41:20;;;;;;;8.38;2.78;;;24.70;99.90;;;;;;5057943;28;20033;-76
2022/05/23 12:44:10;;;;;;;5.20;2.38;;;24.80;99.90;;;;;;5062448;28;20470;-76
2022/05/23 12:46:54;;;;;;;5.93;2.85;;;24.80;99.90;;;;;;5045315;28;20025;-76
2022/05/23 12:49:44;;;;;;;4.43;2.38;;;24.90;99.90;;;;;;5064798;28;20028;-76
2022/05/23 12:52:23;;;;;;;4.63;2.53;;;25.00;99.90;;;;;;5066993;28;20033;-76
2022/05/23 12:55:17;;;;;;;6.43;2.45;;;25.00;99.90;;;;;;5067310;28;20024;-76
2022/05/23 12:58:18;;;;;;;7.25;3.20;;;25.10;99.90;;;;;;5052174;28;20025;-76
2022/05/23 13:00:49;;;;;;;6.28;2.80;;;25.20;99.90;;;;;;5059612;28;20126;-76
2022/05/23 13:03:24;;;;;;;6.82;2.50;;;25.10;99.90;;;;;;5060110;28;20026;-76
2022/05/23 13:06:09;;;;;;;5.75;2.85;;;25.00;99.90;;;;;;5065211;28;20037;-73
2022/05/23 13:08:41;;;;;;;7.45;2.60;;;25.00;99.90;;;;;;5061835;28;20024;-76
2022/05/23 13:11:16;;;;;;;8.80;2.90;;;25.10;99.90;;;;;;5067212;28;20032;-76
2022/05/23 13:13:45;;;;;;;7.45;2.80;;;25.00;99.90;;;;;;5048878;28;20108;-74
2022/05/23 13:16:15;;;;;;;6.60;3.20;;;25.10;99.90;;;;;;5048322;28;20029;-76
2022/05/23 13:27:06;;;;;;;5.80;2.90;;;25.20;99.90;;;;;;5046143;28;20025;-76
2022/05/23 13:29:32;;;;;;;7.50;3.03;;;25.10;99.90;;;;;;5044403;28;20025;-76
2022/05/23 13:32:11;;;;;;;5.50;2.45;;;25.10;99.90;;;;;;5039509;28;20450;-75
2022/05/23 13:34:40;;;;;;;7.03;2.72;;;25.00;99.90;;;;;;5039551;28;20091;-76
2022/05/23 13:37:07;;;;;;;7.55;3.00;;;25.00;99.90;;;;;;5041800;28;20026;-75
2022/05/23 13:39:41;;;;;;;6.45;2.63;;;25.10;99.90;;;;;;5036119;28;20034;-75
2022/05/23 13:42:19;;;;;;;5.53;2.45;;;25.00;99.90;;;;;;5034676;28;20459;-75
2022/05/23 13:44:45;;;;;;;6.63;2.67;;;25.10;99.90;;;;;;5011676;28;20120;-77
2022/05/23 13:47:18;;;;;;;8.20;3.53;;;25.10;99.90;;;;;;5020821;28;20033;-74
2022/05/23 13:49:53;;;;;;;7.22;2.78;;;25.10;99.90;;;;;;5038136;28;20096;-75
2022/05/23 13:52:28;;;;;;;7.22;3.00;;;25.10;99.90;;;;;;5041902;28;20018;-76
2022/05/23 13:55:01;;;;;;;5.10;2.75;;;25.20;99.90;;;;;;5037624;28;20108;-76
2022/05/23 13:57:32;;;;;;;7.47;2.75;;;25.20;99.90;;;;;;5038264;28;20124;-76
2022/05/23 14:00:06;;;;;;;6.22;2.75;;;25.30;99.90;;;;;;5023384;28;20040;-75
2022/05/23 14:02:39;;;;;;;9.65;3.25;;;25.30;99.90;;;;;;5042955;28;20029;-75
2022/05/23 14:05:05;;;;;;;5.55;2.88;;;25.30;99.90;;;;;;5044853;28;20013;-75
2022/05/23 14:07:35;;;;;;;5.28;2.53;;;25.30;99.90;;;;;;5044551;28;20032;-75
2022/05/23 14:10:03;;;;;;;6.35;2.78;;;25.50;99.90;;;;;;5015619;28;20151;-74
2022/05/23 14:12:33;;;;;;;3.80;2.20;;;25.50;99.90;;;;;;5041223;28;20096;-76
2022/05/23 14:15:01;;;;;;;7.83;3.23;;;25.50;99.90;;;;;;5014579;28;20119;-75